Terminal Aerodrome Forecast
Issued by NWS

Home | Current Version | Previous Version | Graphics & Text | Print | Product List | Glossary On
Versions: 1 2 3 4 5 6 7 8 9 10 11 12 13 14 15
981
FTUS43 KGRB 010106 AAA
TAFATW
TAF AMD
KATW 010106Z 0101/0124 22004KT P6SM -RA SCT007 OVC020
      TEMPO 0101/0104 5SM -RA BR BKN007
     FM010400 24004KT 5SM -RA BR OVC006
     FM010900 27005KT P6SM -RASN SCT004 OVC006
     FM011500 28009KT P6SM SCT009 OVC025=

USA.gov is the U.S. government's official web portal to all federal, state and local government web resources and services.